Time;durP1;ratioP1;P1;durP2;ratioP2;P2;SDS_P1;SDS_P2;PMS_P1;PMS_P2;Temp;Humidity;BMP_temperature;BMP_pressure;BME280_temperature;BME280_humidity;BME280_pressure;Samples;Min_cycle;Max_cycle;Signal;HPM_P1;HPM_P2
2022/09/08 00:02:09;;;;;;;12.23;5.87;;;;;;;;;;5018621;28;20510;-69
2022/09/08 00:04:35;;;;;;;9.83;5.90;;;;;;;;;;5001006;28;20215;-69
2022/09/08 00:07:01;;;;;;;14.53;5.90;;;;;;;;;;5018592;28;20180;-69
2022/09/08 00:09:30;;;;;;;7.13;5.30;;;;;;;;;;5018835;28;20262;-69
2022/09/08 00:11:56;;;;;;;9.10;5.50;;;;;;;;;;5000860;28;20581;-69
2022/09/08 00:14:22;;;;;;;14.07;6.13;;;;;;;;;;5018583;28;20211;-70
2022/09/08 00:16:48;;;;;;;10.07;5.37;;;;;;;;;;5000220;28;20187;-69
2022/09/08 00:19:14;;;;;;;9.37;5.87;;;;;;;;;;5016979;28;20171;-69
2022/09/08 00:21:40;;;;;;;11.20;5.70;;;;;;;;;;5016915;28;20191;-69
2022/09/08 00:24:06;;;;;;;9.10;5.77;;;;;;;;;;4999407;28;20187;-69
2022/09/08 00:26:32;;;;;;;12.00;6.17;;;;;;;;;;5017204;28;20176;-68
2022/09/08 00:28:58;;;;;;;8.50;6.33;;;;;;;;;;5017660;28;20266;-69
2022/09/08 00:31:24;;;;;;;13.03;6.60;;;;;;;;;;5017188;28;20560;-70
2022/09/08 00:33:50;;;;;;;8.97;6.67;;;;;;;;;;5016750;28;20674;-69
2022/09/08 00:36:16;;;;;;;14.10;6.67;;;;;;;;;;5017093;28;20566;-69
2022/09/08 00:38:43;;;;;;;11.87;8.13;;;;;;;;;;5040352;23;20231;-68
2022/09/08 00:41:11;;;;;;;13.27;7.57;;;;;;;;;;5014061;28;20186;-66
2022/09/08 00:43:42;;;;;;;13.37;6.10;;;;;;;;;;5016089;28;20172;-69
2022/09/08 00:46:12;;;;;;;9.90;6.40;;;;;;;;;;5016089;28;20179;-67
2022/09/08 00:48:44;;;;;;;8.87;5.60;;;;;;;;;;5016326;28;20192;-66
2022/09/08 00:51:10;;;;;;;8.33;5.47;;;;;;;;;;5014841;28;20198;-67
2022/09/08 00:53:40;;;;;;;7.80;5.17;;;;;;;;;;5016445;28;20204;-67
2022/09/08 00:56:06;;;;;;;8.23;4.50;;;;;;;;;;5015894;28;20257;-66
2022/09/08 00:58:36;;;;;;;6.10;4.93;;;;;;;;;;5015712;28;20192;-67
2022/09/08 01:01:02;;;;;;;11.60;5.87;;;;;;;;;;5014603;28;20189;-67
2022/09/08 01:03:31;;;;;;;6.90;4.80;;;;;;;;;;5014477;28;20206;-67
2022/09/08 01:06:01;;;;;;;6.40;4.40;;;;;;;;;;5014501;28;20187;-66
2022/09/08 01:14:11;;;;;;;12.70;6.07;;;;;;;;;;5015761;28;20250;-66
2022/09/08 01:16:42;;;;;;;11.30;5.37;;;;;;;;;;5014365;28;20180;-66
2022/09/08 01:19:28;;;;;;;13.23;5.67;;;;;;;;;;5015541;28;20219;-67
2022/09/08 01:21:54;;;;;;;10.23;5.57;;;;;;;;;;5015333;28;20566;-67
2022/09/08 01:24:30;;;;;;;9.97;5.50;;;;;;;;;;5014122;28;20641;-67
2022/09/08 01:27:05;;;;;;;10.50;5.27;;;;;;;;;;5013812;28;20187;-67
2022/09/08 01:29:32;;;;;;;9.73;5.07;;;;;;;;;;5015375;28;20198;-67
2022/09/08 01:31:58;;;;;;;8.93;5.00;;;;;;;;;;5015352;28;20183;-66
2022/09/08 01:34:24;;;;;;;7.57;5.17;;;;;;;;;;5015278;28;20215;-68
2022/09/08 01:36:50;;;;;;;11.43;5.07;;;;;;;;;;5015168;28;20180;-67
2022/09/08 01:39:17;;;;;;;7.30;4.67;;;;;;;;;;5013829;28;20218;-67
2022/09/08 01:41:43;;;;;;;7.40;4.40;;;;;;;;;;5015193;28;20706;-67
2022/09/08 01:44:09;;;;;;;5.47;4.40;;;;;;;;;;5013679;28;20188;-67
2022/09/08 01:46:35;;;;;;;8.03;4.57;;;;;;;;;;5015256;28;20234;-67
2022/09/08 01:49:01;;;;;;;5.67;4.40;;;;;;;;;;5014861;28;20254;-67
2022/09/08 01:51:27;;;;;;;5.00;3.93;;;;;;;;;;5013552;28;20675;-67
2022/09/08 01:53:53;;;;;;;5.97;3.57;;;;;;;;;;5015310;28;20211;-67
2022/09/08 01:56:20;;;;;;;4.70;3.80;;;;;;;;;;5013665;28;20694;-67
2022/09/08 01:58:46;;;;;;;5.47;3.67;;;;;;;;;;5013471;28;20668;-67
2022/09/08 02:01:12;;;;;;;9.47;4.13;;;;;;;;;;5013481;28;20179;-67
2022/09/08 02:03:38;;;;;;;5.73;3.70;;;;;;;;;;5014950;28;20706;-67
2022/09/08 02:06:04;;;;;;;4.93;3.60;;;;;;;;;;5014824;28;20222;-67
2022/09/08 02:08:30;;;;;;;5.17;3.40;;;;;;;;;;5013356;28;20208;-67
2022/09/08 02:10:58;;;;;;;4.70;3.10;;;;;;;;;;5015044;28;20299;-66
2022/09/08 02:13:24;;;;;;;8.07;3.77;;;;;;;;;;5013379;28;20192;-66
2022/09/08 02:15:50;;;;;;;6.77;3.97;;;;;;;;;;5013395;28;20211;-67
2022/09/08 02:18:17;;;;;;;6.83;3.73;;;;;;;;;;5014426;28;20207;-67
2022/09/08 02:20:43;;;;;;;5.33;3.70;;;;;;;;;;5014868;28;20259;-67
2022/09/08 02:23:09;;;;;;;5.20;3.87;;;;;;;;;;5014425;28;20263;-67
2022/09/08 02:25:35;;;;;;;5.07;4.10;;;;;;;;;;5014625;28;20194;-66
2022/09/08 02:28:02;;;;;;;4.63;4.00;;;;;;;;;;5013199;28;20209;-67
2022/09/08 02:30:28;;;;;;;7.10;4.27;;;;;;;;;;5014853;28;20186;-67
2022/09/08 02:32:54;;;;;;;5.10;4.40;;;;;;;;;;5012790;28;20620;-67
2022/09/08 02:35:20;;;;;;;7.23;4.40;;;;;;;;;;5014283;28;20199;-67
2022/09/08 02:37:46;;;;;;;5.80;4.40;;;;;;;;;;5012787;28;20302;-67
2022/09/08 02:40:12;;;;;;;8.17;3.80;;;;;;;;;;5012911;28;20275;-67
2022/09/08 02:42:39;;;;;;;5.73;3.70;;;;;;;;;;5012836;28;20707;-67
2022/09/08 02:45:06;;;;;;;7.73;4.07;;;;;;;;;;5014014;28;20215;-67
2022/09/08 02:47:33;;;;;;;7.83;4.73;;;;;;;;;;5013796;28;20203;-67
2022/09/08 02:50:00;;;;;;;11.27;4.33;;;;;;;;;;5012600;28;20539;-66
2022/09/08 02:52:26;;;;;;;7.13;4.50;;;;;;;;;;5012398;28;20192;-66
2022/09/08 02:54:52;;;;;;;7.07;4.07;;;;;;;;;;5014075;28;20203;-67
2022/09/08 02:57:20;;;;;;;6.33;4.03;;;;;;;;;;5013620;28;20279;-67
2022/09/08 02:59:46;;;;;;;8.47;4.57;;;;;;;;;;5012432;28;20180;-66
2022/09/08 03:02:12;;;;;;;6.47;4.20;;;;;;;;;;5012301;28;20261;-67
2022/09/08 03:04:38;;;;;;;9.47;4.50;;;;;;;;;;5013234;28;20184;-67
2022/09/08 03:07:04;;;;;;;8.13;4.63;;;;;;;;;;5013488;28;20183;-66
2022/09/08 03:09:30;;;;;;;8.07;4.57;;;;;;;;;;5012263;28;20180;-66
2022/09/08 03:11:56;;;;;;;7.50;5.10;;;;;;;;;;5012361;28;20219;-67
2022/09/08 03:14:22;;;;;;;8.40;5.27;;;;;;;;;;5013432;28;20236;-67
2022/09/08 03:16:48;;;;;;;10.87;5.70;;;;;;;;;;5014260;28;20184;-67
2022/09/08 03:19:14;;;;;;;6.67;5.43;;;;;;;;;;5012437;28;20250;-67
2022/09/08 03:21:39;;;;;;;8.80;5.70;;;;;;;;;;5013533;28;20202;-67
2022/09/08 03:24:05;;;;;;;10.57;5.73;;;;;;;;;;5012110;28;20208;-67
2022/09/08 03:26:31;;;;;;;7.97;5.20;;;;;;;;;;5013405;28;20180;-67
2022/09/08 03:28:57;;;;;;;10.60;5.70;;;;;;;;;;5012043;28;20208;-67
2022/09/08 03:31:23;;;;;;;6.40;5.40;;;;;;;;;;5011996;28;20219;-67
2022/09/08 03:33:49;;;;;;;10.20;5.63;;;;;;;;;;5013404;28;20211;-67
2022/09/08 03:36:16;;;;;;;7.97;5.30;;;;;;;;;;5013336;28;20595;-67
2022/09/08 03:38:42;;;;;;;7.80;4.97;;;;;;;;;;5011675;28;20239;-67
2022/09/08 03:41:13;;;;;;;8.43;5.07;;;;;;;;;;5013196;28;20210;-67
2022/09/08 03:43:43;;;;;;;10.63;5.30;;;;;;;;;;5013789;28;20492;-67
2022/09/08 03:46:09;;;;;;;9.63;5.30;;;;;;;;;;5011918;28;20682;-67
2022/09/08 03:48:36;;;;;;;6.27;5.13;;;;;;;;;;5011858;28;20195;-67
2022/09/08 03:51:15;;;;;;;9.17;5.40;;;;;;;;;;5013212;28;20179;-67
2022/09/08 03:53:42;;;;;;;6.90;4.73;;;;;;;;;;5013653;28;20310;-67
2022/09/08 03:56:09;;;;;;;8.33;5.03;;;;;;;;;;5013085;28;20199;-67
2022/09/08 03:58:35;;;;;;;11.90;5.50;;;;;;;;;;5011747;28;20207;-67
2022/09/08 04:01:01;;;;;;;8.17;5.73;;;;;;;;;;5013339;28;20254;-67
2022/09/08 04:03:29;;;;;;;8.73;5.20;;;;;;;;;;5011727;28;20212;-66
2022/09/08 04:05:55;;;;;;;11.17;6.07;;;;;;;;;;5013033;28;20187;-67
2022/09/08 04:08:21;;;;;;;12.77;6.57;;;;;;;;;;5011733;28;20203;-66
2022/09/08 04:10:47;;;;;;;17.17;7.17;;;;;;;;;;5012982;28;20614;-66
2022/09/08 04:13:13;;;;;;;11.90;6.33;;;;;;;;;;5012981;28;20238;-66
2022/09/08 04:15:39;;;;;;;11.73;6.20;;;;;;;;;;5013423;28;20203;-67
2022/09/08 04:18:05;;;;;;;15.73;6.60;;;;;;;;;;5015341;28;20192;-66
2022/09/08 04:20:31;;;;;;;14.77;7.03;;;;;;;;;;5015394;28;20180;-66
2022/09/08 04:22:57;;;;;;;12.37;7.83;;;;;;;;;;5016794;28;20187;-67
2022/09/08 04:25:23;;;;;;;13.43;7.17;;;;;;;;;;5016622;28;20187;-67
2022/09/08 04:27:49;;;;;;;10.83;7.80;;;;;;;;;;5015163;28;20642;-67
2022/09/08 04:30:15;;;;;;;14.00;7.43;;;;;;;;;;5015120;28;20180;-67
2022/09/08 04:32:41;;;;;;;14.10;7.77;;;;;;;;;;5016579;28;20184;-67
2022/09/08 04:35:08;;;;;;;15.10;7.17;;;;;;;;;;5015073;28;20295;-67
2022/09/08 04:37:35;;;;;;;14.63;7.77;;;;;;;;;;5014864;28;20219;-67
2022/09/08 04:40:01;;;;;;;17.03;8.97;;;;;;;;;;5016580;28;20171;-66
2022/09/08 04:42:28;;;;;;;12.90;7.87;;;;;;;;;;5015000;28;20175;-68
2022/09/08 04:44:54;;;;;;;16.73;8.53;;;;;;;;;;5016183;28;20203;-67
2022/09/08 04:47:20;;;;;;;12.20;7.50;;;;;;;;;;5014674;28;20626;-67
2022/09/08 04:49:46;;;;;;;17.40;8.73;;;;;;;;;;5014809;28;20183;-67
2022/09/08 04:52:12;;;;;;;14.77;8.60;;;;;;;;;;5015967;28;20589;-67
2022/09/08 04:54:38;;;;;;;16.33;8.70;;;;;;;;;;5015861;28;20203;-67
2022/09/08 04:57:04;;;;;;;11.90;8.50;;;;;;;;;;5015679;28;20231;-65
2022/09/08 04:59:30;;;;;;;15.37;9.27;;;;;;;;;;5014405;28;20656;-69
2022/09/08 05:01:56;;;;;;;14.00;9.57;;;;;;;;;;5015749;28;20180;-67
2022/09/08 05:04:22;;;;;;;15.63;9.97;;;;;;;;;;5015775;28;20191;-67
2022/09/08 05:06:48;;;;;;;23.90;11.03;;;;;;;;;;5015854;28;20234;-67
2022/09/08 05:09:15;;;;;;;14.07;11.03;;;;;;;;;;5014072;28;20211;-67
2022/09/08 05:11:41;;;;;;;21.07;11.07;;;;;;;;;;5015461;28;20191;-66
2022/09/08 05:14:07;;;;;;;16.73;11.53;;;;;;;;;;5015702;28;20196;-67
2022/09/08 05:16:33;;;;;;;18.53;11.70;;;;;;;;;;5015479;28;20176;-66
2022/09/08 05:19:01;;;;;;;17.80;12.27;;;;;;;;;;5014040;28;20342;-67
2022/09/08 05:21:28;;;;;;;17.67;11.70;;;;;;;;;;5014132;28;20176;-67
2022/09/08 05:23:54;;;;;;;16.33;11.03;;;;;;;;;;5015400;28;20172;-67
2022/09/08 05:26:22;;;;;;;20.07;12.70;;;;;;;;;;5015035;28;20176;-66
2022/09/08 05:28:48;;;;;;;18.97;11.03;;;;;;;;;;5015441;28;20246;-67
2022/09/08 05:31:27;;;;;;;19.47;11.03;;;;;;;;;;5013973;28;20183;-67
2022/09/08 05:34:01;;;;;;;20.07;10.83;;;;;;;;;;5015149;28;20667;-67
2022/09/08 05:36:29;;;;;;;19.03;10.70;;;;;;;;;;5015551;28;20165;-67
2022/09/08 05:38:55;;;;;;;16.63;9.50;;;;;;;;;;5014900;28;20222;-67
2022/09/08 05:41:21;;;;;;;17.70;9.30;;;;;;;;;;5015026;28;20214;-67
2022/09/08 05:43:47;;;;;;;24.37;9.00;;;;;;;;;;5013768;28;20238;-67
2022/09/08 05:46:13;;;;;;;12.37;7.70;;;;;;;;;;5013687;28;20648;-67
2022/09/08 05:48:39;;;;;;;14.93;8.07;;;;;;;;;;5014783;28;20204;-67
2022/09/08 05:51:09;;;;;;;16.77;7.83;;;;;;;;;;5013581;28;20180;-67
2022/09/08 05:53:36;;;;;;;17.13;8.23;;;;;;;;;;5013527;28;20187;-67
2022/09/08 05:56:03;;;;;;;12.90;8.47;;;;;;;;;;5013489;28;20676;-67
2022/09/08 05:58:29;;;;;;;12.83;7.70;;;;;;;;;;5013440;28;20737;-67
2022/09/08 06:01:01;;;;;;;14.70;7.93;;;;;;;;;;5013587;28;20187;-66
2022/09/08 06:03:28;;;;;;;16.13;8.60;;;;;;;;;;5014655;28;20539;-67
2022/09/08 06:05:54;;;;;;;15.33;7.67;;;;;;;;;;5013342;28;20187;-67
2022/09/08 06:08:21;;;;;;;12.57;6.60;;;;;;;;;;5014874;28;20200;-67
2022/09/08 06:10:53;;;;;;;10.47;6.23;;;;;;;;;;5013195;28;20195;-67
2022/09/08 06:13:21;;;;;;;13.83;7.30;;;;;;;;;;5014588;28;20176;-67
2022/09/08 06:15:47;;;;;;;12.07;6.63;;;;;;;;;;5014547;28;20196;-67
2022/09/08 06:18:13;;;;;;;13.83;7.07;;;;;;;;;;5014437;28;20538;-67
2022/09/08 06:20:39;;;;;;;10.27;5.67;;;;;;;;;;5014292;28;20186;-67
2022/09/08 06:23:05;;;;;;;13.47;6.60;;;;;;;;;;5014251;28;20190;-67
2022/09/08 06:25:30;;;;;;;11.73;7.10;;;;;;;;;;5014458;28;20176;-69
2022/09/08 06:28:11;;;;;;;10.83;5.87;;;;;;;;;;5012835;28;20688;-66
2022/09/08 06:30:38;;;;;;;17.13;6.27;;;;;;;;;;5012871;28;20180;-67
2022/09/08 06:33:08;;;;;;;11.80;6.13;;;;;;;;;;5014205;28;20179;-67
2022/09/08 06:35:42;;;;;;;13.00;5.77;;;;;;;;;;5012756;28;20204;-67
2022/09/08 06:38:14;;;;;;;15.37;6.10;;;;;;;;;;5013610;28;20211;-67
2022/09/08 06:40:47;;;;;;;10.70;5.50;;;;;;;;;;5013819;28;20176;-67
2022/09/08 06:43:15;;;;;;;13.07;5.73;;;;;;;;;;5014046;28;20664;-66
2022/09/08 06:45:47;;;;;;;10.37;5.70;;;;;;;;;;5012484;28;20184;-67
2022/09/08 06:48:21;;;;;;;13.00;5.10;;;;;;;;;;5012515;28;20208;-67
2022/09/08 06:51:22;;;;;;;10.67;5.33;;;;;;;;;;5013499;28;20263;-66
2022/09/08 06:53:51;;;;;;;11.03;5.47;;;;;;;;;;4957928;28;20224;-67
2022/09/08 06:56:29;;;;;;;11.93;5.70;;;;;;;;;;5008051;28;20187;-67
2022/09/08 06:59:00;;;;;;;11.87;5.63;;;;;;;;;;5013478;28;20239;-67
2022/09/08 07:01:29;;;;;;;10.40;5.83;;;;;;;;;;5014906;28;20157;-67
2022/09/08 07:04:05;;;;;;;10.60;5.90;;;;;;;;;;5014437;28;20194;-67
2022/09/08 07:06:34;;;;;;;12.70;5.93;;;;;;;;;;5015730;28;20191;-67
2022/09/08 07:09:20;;;;;;;15.50;6.20;;;;;;;;;;5014061;28;20199;-67
2022/09/08 07:11:55;;;;;;;18.70;6.60;;;;;;;;;;5012845;28;20585;-67
2022/09/08 07:14:28;;;;;;;14.47;6.20;;;;;;;;;;5013435;28;20706;-67
2022/09/08 07:17:12;;;;;;;13.13;6.30;;;;;;;;;;5014133;28;20204;-67
2022/09/08 07:19:45;;;;;;;13.60;7.07;;;;;;;;;;5012247;28;20218;-67
2022/09/08 07:22:17;;;;;;;17.20;8.27;;;;;;;;;;5013776;28;20187;-67
2022/09/08 07:24:45;;;;;;;22.57;11.17;;;;;;;;;;5013732;28;20176;-67
2022/09/08 07:27:13;;;;;;;16.33;8.70;;;;;;;;;;5013399;28;20182;-67
2022/09/08 07:29:42;;;;;;;14.10;8.30;;;;;;;;;;5013598;28;20183;-67
2022/09/08 07:32:29;;;;;;;15.80;9.50;;;;;;;;;;5013755;28;20211;-68
2022/09/08 07:34:57;;;;;;;14.43;9.47;;;;;;;;;;5013356;28;20569;-67
2022/09/08 07:37:29;;;;;;;15.07;9.80;;;;;;;;;;5013118;28;20563;-67
2022/09/08 07:40:02;;;;;;;14.43;9.27;;;;;;;;;;5013188;28;20717;-67
2022/09/08 07:42:28;;;;;;;16.73;9.73;;;;;;;;;;5011938;28;20593;-67
2022/09/08 07:44:59;;;;;;;14.37;9.57;;;;;;;;;;5013249;28;20635;-67
2022/09/08 07:47:33;;;;;;;13.80;8.83;;;;;;;;;;5013132;28;20295;-67
2022/09/08 07:50:11;;;;;;;18.23;9.47;;;;;;;;;;5014250;28;20179;-67
2022/09/08 07:52:54;;;;;;;14.03;8.77;;;;;;;;;;5017392;28;20195;-67
2022/09/08 07:55:37;;;;;;;18.53;9.67;;;;;;;;;;5017015;28;20669;-66
2022/09/08 07:58:14;;;;;;;18.33;8.70;;;;;;;;;;5015687;28;20584;-67
2022/09/08 08:00:46;;;;;;;10.67;8.70;;;;;;;;;;5016943;28;20694;-67
2022/09/08 08:03:18;;;;;;;13.67;7.90;;;;;;;;;;5017238;28;20191;-68
2022/09/08 08:05:46;;;;;;;10.40;7.83;;;;;;;;;;5017178;28;20247;-67
2022/09/08 08:08:15;;;;;;;12.40;8.00;;;;;;;;;;5015332;28;20242;-67
2022/09/08 08:10:44;;;;;;;9.37;7.80;;;;;;;;;;5017003;28;20184;-68
2022/09/08 08:13:10;;;;;;;14.57;7.30;;;;;;;;;;5016623;28;20188;-67
2022/09/08 08:15:46;;;;;;;9.77;6.63;;;;;;;;;;5017115;28;20274;-68
2022/09/08 08:18:25;;;;;;;7.33;5.20;;;;;;;;;;5015251;28;20578;-67
2022/09/08 08:20:53;;;;;;;10.40;5.87;;;;;;;;;;5016852;28;20167;-67
2022/09/08 08:23:30;;;;;;;10.57;5.70;;;;;;;;;;5016634;28;20259;-67
2022/09/08 08:26:15;;;;;;;10.60;6.13;;;;;;;;;;5016905;28;20172;-67
2022/09/08 08:28:43;;;;;;;11.77;5.13;;;;;;;;;;5016405;28;20234;-67
2022/09/08 08:31:34;;;;;;;7.97;4.93;;;;;;;;;;5016469;28;20176;-67
2022/09/08 08:34:05;;;;;;;9.30;4.27;;;;;;;;;;5015091;28;20202;-67
2022/09/08 08:36:33;;;;;;;6.77;4.67;;;;;;;;;;5016285;28;20175;-67
2022/09/08 08:39:11;;;;;;;6.13;4.23;;;;;;;;;;5016201;28;20591;-67
2022/09/08 08:41:48;;;;;;;7.93;3.70;;;;;;;;;;5014894;28;20270;-67
2022/09/08 08:44:33;;;;;;;6.87;3.27;;;;;;;;;;5014909;28;20345;-67
2022/09/08 08:47:18;;;;;;;4.97;3.20;;;;;;;;;;5016373;28;20180;-66
2022/09/08 08:49:43;;;;;;;5.73;3.60;;;;;;;;;;5014814;28;20617;-66
2022/09/08 08:52:18;;;;;;;8.43;3.60;;;;;;;;;;5016270;28;20218;-66
2022/09/08 08:55:09;;;;;;;5.67;3.83;;;;;;;;;;5014674;28;20207;-67
2022/09/08 08:57:44;;;;;;;7.03;4.37;;;;;;;;;;5015933;28;20196;-67
2022/09/08 09:00:17;;;;;;;5.47;4.90;;;;;;;;;;5016000;28;20247;-67
2022/09/08 09:02:46;;;;;;;8.37;5.50;;;;;;;;;;5015099;28;20202;-67
2022/09/08 09:05:29;;;;;;;9.57;5.77;;;;;;;;;;5015631;28;20176;-67
2022/09/08 09:08:17;;;;;;;7.23;5.97;;;;;;;;;;5015833;28;20298;-67
2022/09/08 09:10:55;;;;;;;9.40;5.27;;;;;;;;;;5014480;28;20182;-67
2022/09/08 09:13:27;;;;;;;7.73;5.37;;;;;;;;;;5014400;28;20188;-67
2022/09/08 09:16:12;;;;;;;6.20;5.10;;;;;;;;;;5015481;28;20203;-67
2022/09/08 09:18:57;;;;;;;8.83;5.10;;;;;;;;;;5014242;28;20195;-66
2022/09/08 09:21:32;;;;;;;8.17;5.30;;;;;;;;;;5014208;28;20675;-66
2022/09/08 09:24:13;;;;;;;6.13;4.77;;;;;;;;;;5015361;28;20240;-67
2022/09/08 09:26:42;;;;;;;9.67;4.80;;;;;;;;;;5014089;28;20187;-67
2022/09/08 09:29:10;;;;;;;6.10;4.57;;;;;;;;;;5015297;28;20340;-67
2022/09/08 09:31:36;;;;;;;9.03;5.83;;;;;;;;;;5015667;28;20180;-67
2022/09/08 09:34:20;;;;;;;7.03;4.73;;;;;;;;;;5013983;28;20322;-67
2022/09/08 09:37:05;;;;;;;10.70;5.20;;;;;;;;;;5013899;28;20211;-67
2022/09/08 09:39:37;;;;;;;8.00;5.07;;;;;;;;;;5015142;28;20180;-67
2022/09/08 09:42:21;;;;;;;7.50;5.30;;;;;;;;;;5015411;28;20179;-67
2022/09/08 09:45:06;;;;;;;7.23;4.87;;;;;;;;;;5015202;28;20181;-66
2022/09/08 09:47:32;;;;;;;7.47;4.37;;;;;;;;;;5015036;28;20267;-67
2022/09/08 09:50:16;;;;;;;6.90;4.37;;;;;;;;;;5014899;28;20184;-67
2022/09/08 09:52:49;;;;;;;8.10;3.03;;;;;;;;;;5013482;28;20279;-66
2022/09/08 09:55:14;;;;;;;5.57;2.83;;;;;;;;;;5013392;28;20214;-67
2022/09/08 09:57:50;;;;;;;4.83;2.63;;;;;;;;;;5014600;28;20282;-66
2022/09/08 10:00:17;;;;;;;5.07;2.53;;;;;;;;;;5013523;28;20175;-67
2022/09/08 10:03:02;;;;;;;4.70;2.20;;;;;;;;;;5014716;28;20176;-67
2022/09/08 10:05:46;;;;;;;3.70;2.07;;;;;;;;;;5014679;28;20188;-67
2022/09/08 10:08:16;;;;;;;2.50;2.03;;;;;;;;;;5014782;28;20287;-67
2022/09/08 10:11:00;;;;;;;5.93;2.10;;;;;;;;;;5013636;28;20183;-68
2022/09/08 10:13:29;;;;;;;5.40;2.23;;;;;;;;;;5013656;28;20625;-66
2022/09/08 10:16:15;;;;;;;3.30;1.93;;;;;;;;;;5014276;28;20203;-67
2022/09/08 10:19:04;;;;;;;3.87;1.93;;;;;;;;;;5014492;28;20195;-67
2022/09/08 10:21:48;;;;;;;2.90;1.70;;;;;;;;;;5014622;28;20168;-67
2022/09/08 10:24:31;;;;;;;8.30;2.53;;;;;;;;;;5013206;28;20238;-67
2022/09/08 10:27:16;;;;;;;3.80;2.23;;;;;;;;;;5014566;28;20171;-67
2022/09/08 10:30:17;;;;;;;4.30;2.33;;;;;;;;;;5014920;28;20168;-66
2022/09/08 10:33:02;;;;;;;5.17;2.10;;;;;;;;;;4973309;28;20195;-67
2022/09/08 10:35:37;;;;;;;4.10;2.10;;;;;;;;;;5008922;28;20246;-67
2022/09/08 10:38:21;;;;;;;3.93;1.77;;;;;;;;;;5014541;28;20679;-67
2022/09/08 10:40:56;;;;;;;3.40;1.83;;;;;;;;;;5013903;28;20191;-66
2022/09/08 10:43:48;;;;;;;2.77;1.90;;;;;;;;;;5013596;28;20179;-67
2022/09/08 10:46:23;;;;;;;3.43;2.23;;;;;;;;;;5012825;28;20271;-67
2022/09/08 10:49:07;;;;;;;3.70;1.63;;;;;;;;;;5013961;28;20199;-66
2022/09/08 10:51:36;;;;;;;3.80;1.80;;;;;;;;;;5014320;28;20242;-66
2022/09/08 10:54:20;;;;;;;4.27;1.80;;;;;;;;;;5014308;28;20203;-66
2022/09/08 10:56:48;;;;;;;3.03;2.00;;;;;;;;;;5013171;28;20570;-66
2022/09/08 10:59:23;;;;;;;5.37;1.90;;;;;;;;;;5012717;28;20203;-66
2022/09/08 11:01:55;;;;;;;4.27;1.57;;;;;;;;;;5013747;28;20548;-66
2022/09/08 11:04:40;;;;;;;3.73;1.70;;;;;;;;;;5013874;28;20184;-67
2022/09/08 11:07:11;;;;;;;3.23;1.30;;;;;;;;;;5013922;28;20648;-66
2022/09/08 11:09:48;;;;;;;2.20;1.50;;;;;;;;;;5013967;28;20184;-66
2022/09/08 11:12:28;;;;;;;3.03;1.40;;;;;;;;;;5013850;28;20168;-65
2022/09/08 11:15:01;;;;;;;1.90;1.40;;;;;;;;;;5013503;28;20196;-67
2022/09/08 11:17:32;;;;;;;1.63;1.37;;;;;;;;;;5012202;28;20581;-66
2022/09/08 11:20:02;;;;;;;2.90;1.40;;;;;;;;;;5012424;28;20585;-66
2022/09/08 11:22:50;;;;;;;3.57;1.47;;;;;;;;;;5013506;28;20175;-66
2022/09/08 11:25:19;;;;;;;3.13;1.50;;;;;;;;;;5013330;28;20536;-66
2022/09/08 11:27:54;;;;;;;3.37;1.87;;;;;;;;;;5013625;28;20211;-66
2022/09/08 11:30:22;;;;;;;2.67;1.63;;;;;;;;;;5013404;28;20186;-66
2022/09/08 11:32:53;;;;;;;2.27;1.30;;;;;;;;;;5013374;28;20234;-67
2022/09/08 11:35:28;;;;;;;3.03;1.77;;;;;;;;;;5011977;28;20207;-66
2022/09/08 11:38:00;;;;;;;2.40;1.40;;;;;;;;;;5011844;28;20606;-67
2022/09/08 11:40:44;;;;;;;2.73;1.30;;;;;;;;;;5011974;28;20179;-66
2022/09/08 11:43:18;;;;;;;1.80;1.30;;;;;;;;;;5011950;28;20187;-66
2022/09/08 11:46:02;;;;;;;4.17;1.80;;;;;;;;;;5013829;28;20172;-66
2022/09/08 11:48:30;;;;;;;2.57;1.70;;;;;;;;;;5013087;28;20230;-66
2022/09/08 11:50:56;;;;;;;3.17;1.63;;;;;;;;;;5013125;28;20183;-66
2022/09/08 11:53:41;;;;;;;2.83;1.33;;;;;;;;;;5011849;28;20253;-67
2022/09/08 11:56:26;;;;;;;2.27;1.20;;;;;;;;;;5011831;28;20204;-66
2022/09/08 11:59:07;;;;;;;4.80;1.70;;;;;;;;;;5011791;28;20204;-66
2022/09/08 12:01:50;;;;;;;3.60;1.50;;;;;;;;;;5013327;28;20539;-66
2022/09/08 12:04:31;;;;;;;4.10;1.63;;;;;;;;;;5011811;28;20187;-66
2022/09/08 12:06:57;;;;;;;4.50;1.50;;;;;;;;;;5011742;28;20238;-66
2022/09/08 12:09:26;;;;;;;3.27;1.30;;;;;;;;;;5011631;28;20203;-67
2022/09/08 12:11:58;;;;;;;2.40;1.50;;;;;;;;;;5013245;28;20183;-66
2022/09/08 12:14:24;;;;;;;3.73;1.37;;;;;;;;;;5012793;28;20571;-67
2022/09/08 12:16:53;;;;;;;4.67;1.87;;;;;;;;;;5013052;28;20259;-66
2022/09/08 12:19:38;;;;;;;4.03;1.50;;;;;;;;;;5012793;28;20204;-66
2022/09/08 12:22:08;;;;;;;4.37;1.30;;;;;;;;;;5012832;28;20168;-66
2022/09/08 12:24:41;;;;;;;2.50;1.60;;;;;;;;;;5011686;28;20180;-66
2022/09/08 12:27:19;;;;;;;2.50;1.40;;;;;;;;;;5011535;28;20184;-66
2022/09/08 12:29:57;;;;;;;3.63;1.47;;;;;;;;;;5012833;28;20184;-67
2022/09/08 12:32:23;;;;;;;1.80;1.20;;;;;;;;;;5013143;28;20172;-67
2022/09/08 12:34:52;;;;;;;3.67;1.60;;;;;;;;;;5011484;28;20204;-67
2022/09/08 12:37:26;;;;;;;2.77;1.27;;;;;;;;;;5012820;28;20184;-67
2022/09/08 12:40:11;;;;;;;4.30;1.50;;;;;;;;;;5016235;28;20186;-67
2022/09/08 12:42:54;;;;;;;6.50;1.50;;;;;;;;;;5014883;28;20184;-66
2022/09/08 12:45:25;;;;;;;4.33;1.73;;;;;;;;;;5016144;28;20222;-67
2022/09/08 12:47:51;;;;;;;5.03;1.50;;;;;;;;;;5014799;28;20208;-67
2022/09/08 12:50:20;;;;;;;2.83;1.77;;;;;;;;;;5014837;28;20186;-67
2022/09/08 12:53:09;;;;;;;3.87;1.33;;;;;;;;;;5014693;28;20179;-67
2022/09/08 12:55:46;;;;;;;3.93;1.50;;;;;;;;;;5015892;28;20633;-67
2022/09/08 12:58:21;;;;;;;3.73;1.57;;;;;;;;;;5014693;28;20234;-67
2022/09/08 13:00:56;;;;;;;2.77;1.20;;;;;;;;;;5014683;28;20167;-68
2022/09/08 13:03:43;;;;;;;3.23;1.50;;;;;;;;;;5015943;28;20667;-65
2022/09/08 13:06:28;;;;;;;2.23;1.50;;;;;;;;;;5014679;28;20632;-65
2022/09/08 13:08:58;;;;;;;3.03;1.80;;;;;;;;;;5015650;28;20676;-65
2022/09/08 13:11:30;;;;;;;2.27;1.37;;;;;;;;;;5014602;28;20187;-68
2022/09/08 13:13:59;;;;;;;3.60;1.43;;;;;;;;;;5015874;28;20648;-66
2022/09/08 13:16:31;;;;;;;1.47;1.23;;;;;;;;;;5014295;28;20253;-65
2022/09/08 13:19:03;;;;;;;3.97;1.37;;;;;;;;;;5014223;28;20199;-65
2022/09/08 13:21:35;;;;;;;4.73;1.47;;;;;;;;;;5015766;28;20179;-65
2022/09/08 13:24:10;;;;;;;2.67;1.47;;;;;;;;;;5015921;28;20262;-65
2022/09/08 13:26:45;;;;;;;4.47;1.50;;;;;;;;;;5016102;28;20164;-66
2022/09/08 13:29:26;;;;;;;1.90;1.27;;;;;;;;;;5016157;28;20223;-66
2022/09/08 13:32:02;;;;;;;2.53;1.50;;;;;;;;;;5014273;28;20247;-66
2022/09/08 13:34:34;;;;;;;3.23;1.47;;;;;;;;;;5015517;28;20218;-65
2022/09/08 13:37:29;;;;;;;4.17;1.53;;;;;;;;;;5015433;28;20176;-65
2022/09/08 13:39:55;;;;;;;4.40;1.30;;;;;;;;;;5015241;28;20247;-66
2022/09/08 13:42:36;;;;;;;2.83;1.20;;;;;;;;;;5015040;28;20214;-66
2022/09/08 13:45:12;;;;;;;3.03;1.63;;;;;;;;;;5015086;28;20168;-66
2022/09/08 13:47:51;;;;;;;3.07;1.40;;;;;;;;;;5014996;28;20676;-67
2022/09/08 13:50:20;;;;;;;4.13;1.30;;;;;;;;;;5014939;28;20262;-67
2022/09/08 13:52:46;;;;;;;3.93;1.40;;;;;;;;;;5014952;28;20255;-66
2022/09/08 13:55:47;;;;;;;2.83;1.10;;;;;;;;;;5015121;28;20257;-67
2022/09/08 13:58:32;;;;;;;2.43;1.30;;;;;;;;;;4957974;28;20271;-66
2022/09/08 14:01:16;;;;;;;3.03;1.50;;;;;;;;;;5009172;28;20277;-66
2022/09/08 14:03:50;;;;;;;2.73;1.23;;;;;;;;;;5014732;28;20182;-67
2022/09/08 14:06:17;;;;;;;2.30;1.30;;;;;;;;;;5015297;28;20176;-66
2022/09/08 14:08:50;;;;;;;3.47;1.40;;;;;;;;;;5015078;28;20203;-66
2022/09/08 14:11:26;;;;;;;2.40;1.23;;;;;;;;;;5015361;28;20207;-66
2022/09/08 14:14:09;;;;;;;2.90;1.30;;;;;;;;;;5013489;28;20212;-68
2022/09/08 14:19:21;;;;;;;2.33;1.57;;;;;;;;;;4974506;28;20227;-70
2022/09/08 14:21:49;;;;;;;3.67;1.40;;;;;;;;;;4975805;28;20251;-68
2022/09/08 14:24:19;;;;;;;2.90;1.30;;;;;;;;;;4975787;28;20300;-67
2022/09/08 14:26:49;;;;;;;3.53;1.70;;;;;;;;;;4974166;28;20209;-68
2022/09/08 14:29:21;;;;;;;1.10;1.00;;;;;;;;;;4974418;28;20658;-67
2022/09/08 14:31:53;;;;;;;2.50;1.50;;;;;;;;;;4974187;28;20666;-67
2022/09/08 14:34:38;;;;;;;2.50;1.47;;;;;;;;;;4975440;28;20585;-66
2022/09/08 14:37:11;;;;;;;2.47;1.30;;;;;;;;;;4974509;28;20208;-68
2022/09/08 14:39:45;;;;;;;2.83;1.50;;;;;;;;;;4974231;28;20185;-69
2022/09/08 14:42:24;;;;;;;1.47;1.23;;;;;;;;;;4975227;28;20173;-68
2022/09/08 14:45:09;;;;;;;3.17;1.20;;;;;;;;;;4973828;28;20276;-68
2022/09/08 14:48:01;;;;;;;3.10;1.57;;;;;;;;;;4975903;28;20212;-68
2022/09/08 14:50:33;;;;;;;3.30;1.60;;;;;;;;;;4974999;28;20711;-68
2022/09/08 14:53:05;;;;;;;2.50;1.40;;;;;;;;;;4975410;28;20260;-69
2022/09/08 14:55:31;;;;;;;2.23;1.40;;;;;;;;;;4976590;28;20653;-67
2022/09/08 14:58:19;;;;;;;4.77;1.57;;;;;;;;;;4975118;28;20319;-66
2022/09/08 15:00:46;;;;;;;3.07;1.43;;;;;;;;;;4974935;28;20177;-67
2022/09/08 15:03:31;;;;;;;3.83;1.30;;;;;;;;;;4975215;28;20185;-67
2022/09/08 15:05:57;;;;;;;2.50;1.40;;;;;;;;;;4973685;28;20309;-67
2022/09/08 15:08:34;;;;;;;3.13;1.43;;;;;;;;;;4974767;28;20583;-68
2022/09/08 15:11:08;;;;;;;4.97;1.83;;;;;;;;;;4975323;28;20161;-68
2022/09/08 15:13:57;;;;;;;4.43;1.70;;;;;;;;;;4973518;28;20226;-67
2022/09/08 15:16:31;;;;;;;3.53;1.50;;;;;;;;;;4975332;28;20562;-67